Time;durP1;ratioP1;P1;durP2;ratioP2;P2;SDS_P1;SDS_P2;PMS_P1;PMS_P2;Temp;Humidity;BMP_temperature;BMP_pressure;BME280_temperature;BME280_humidity;BME280_pressure;Samples;Min_cycle;Max_cycle;Signal;HPM_P1;HPM_P2
2021/12/31 00:00:39;;;;;;;3.42;0.85;;;;;;;13.95;80.43;100638.97;5011640;28;20026;-75
2021/12/31 00:03:04;;;;;;;1.98;0.70;;;;;;;14.02;80.42;100655.66;5012010;28;20066;-76
2021/12/31 00:05:29;;;;;;;3.63;0.93;;;;;;;13.98;80.52;100644.19;5011696;28;20037;-76
2021/12/31 00:07:55;;;;;;;6.10;0.80;;;;;;;13.99;80.76;100638.00;5011903;28;20026;-75
2021/12/31 00:10:20;;;;;;;1.70;0.68;;;;;;;13.99;80.40;100640.66;5011885;28;20033;-76
2021/12/31 00:12:45;;;;;;;1.45;0.60;;;;;;;14.03;80.51;100636.16;5011953;28;20037;-76
2021/12/31 00:15:12;;;;;;;1.13;0.60;;;;;;;14.01;80.33;100644.16;5011598;28;20108;-75
2021/12/31 00:17:39;;;;;;;2.30;0.70;;;;;;;14.02;80.56;100645.03;5011729;28;20481;-76
2021/12/31 00:20:10;;;;;;;2.08;0.68;;;;;;;14.09;79.81;100651.97;5011688;28;20061;-76
2021/12/31 00:25:20;;;;;;;1.83;0.68;;;;;;;14.00;80.37;100654.81;5008653;28;20276;-76
2021/12/31 00:27:45;;;;;;;1.98;0.70;;;;;;;14.07;80.66;100653.78;5011582;28;20042;-75
2021/12/31 00:30:12;;;;;;;1.55;0.65;;;;;;;14.08;80.11;100660.84;5011519;28;20034;-76
2021/12/31 00:32:38;;;;;;;2.28;0.60;;;;;;;14.05;80.29;100654.72;5011722;28;20030;-77
2021/12/31 00:35:05;;;;;;;1.70;0.57;;;;;;;14.06;80.40;100661.78;5011332;28;20065;-76
2021/12/31 00:37:32;;;;;;;1.10;0.60;;;;;;;14.05;80.53;100663.56;5010255;28;20132;-76
2021/12/31 00:39:58;;;;;;;2.20;0.85;;;;;;;14.08;80.13;100665.28;5010270;28;20085;-76
2021/12/31 00:42:23;;;;;;;1.60;0.70;;;;;;;14.11;79.99;100663.44;5011525;28;20168;-76
2021/12/31 00:44:49;;;;;;;0.90;0.38;;;;;;;14.09;80.08;100662.56;5011229;28;20084;-76
2021/12/31 00:47:14;;;;;;;2.92;0.73;;;;;;;14.09;80.12;100673.19;5011357;28;20045;-77
2021/12/31 00:49:40;;;;;;;1.75;0.60;;;;;;;14.13;80.04;100660.75;5011437;28;20493;-76
2021/12/31 00:52:07;;;;;;;1.88;0.60;;;;;;;14.07;80.27;100663.50;5011423;28;20042;-77
2021/12/31 00:54:32;;;;;;;2.75;0.50;;;;;;;13.97;80.47;100674.31;5011456;28;20045;-76
2021/12/31 00:57:02;;;;;;;1.15;0.50;;;;;;;13.97;80.29;100679.63;5015433;28;20038;-75
2021/12/31 00:59:29;;;;;;;3.67;0.50;;;;;;;14.06;80.62;100677.69;5015581;28;20026;-75
2021/12/31 01:01:55;;;;;;;0.88;0.47;;;;;;;14.09;80.11;100680.28;5015392;28;20034;-76
2021/12/31 01:04:21;;;;;;;3.05;0.68;;;;;;;14.03;80.37;100676.84;5015217;28;20048;-76
2021/12/31 01:06:47;;;;;;;1.45;0.50;;;;;;;14.05;80.07;100686.56;5015133;28;20119;-76
2021/12/31 01:09:13;;;;;;;1.98;0.70;;;;;;;14.10;79.91;100687.38;5015184;28;20066;-76
2021/12/31 01:11:41;;;;;;;3.13;0.63;;;;;;;13.96;80.37;100683.19;5015130;28;20124;-76
2021/12/31 01:14:15;;;;;;;1.30;0.50;;;;;;;14.09;80.23;100680.28;5011424;28;20484;-76
2021/12/31 01:16:47;;;;;;;1.25;0.50;;;;;;;14.05;80.35;100674.16;5011787;28;20037;-76
2021/12/31 01:21:38;;;;;;;1.08;0.60;;;;;;;14.10;79.79;100676.75;5015012;28;20038;-76
2021/12/31 01:24:03;;;;;;;1.45;0.40;;;;;;;14.11;80.21;100670.53;5014903;28;20041;-76
2021/12/31 01:26:31;;;;;;;0.90;0.35;;;;;;;14.11;79.63;100675.84;5014675;28;20077;-77
2021/12/31 01:28:56;;;;;;;1.50;0.50;;;;;;;14.14;79.74;100678.44;5025960;28;20403;-76
2021/12/31 01:31:21;;;;;;;1.55;0.50;;;;;;;14.09;80.34;100682.94;5014767;28;20120;-76
2021/12/31 01:33:47;;;;;;;1.25;0.52;;;;;;;14.04;80.95;100680.38;5014446;28;20068;-76
2021/12/31 01:36:12;;;;;;;2.88;0.40;;;;;;;13.99;80.96;100677.81;5014539;28;20041;-77
2021/12/31 01:38:38;;;;;;;1.13;0.60;;;;;;;13.95;80.94;100676.09;5014616;28;20168;-76
2021/12/31 01:41:03;;;;;;;1.67;0.40;;;;;;;13.96;80.91;100680.53;5014540;28;20072;-76
2021/12/31 01:43:29;;;;;;;1.83;0.50;;;;;;;14.03;80.38;100684.81;5014533;28;20458;-77
2021/12/31 01:45:59;;;;;;;2.85;0.40;;;;;;;14.06;80.37;100683.00;5014410;28;20109;-76
2021/12/31 01:48:35;;;;;;;0.82;0.30;;;;;;;14.02;80.39;100688.38;5014707;28;20095;-76
2021/12/31 01:51:01;;;;;;;0.80;0.40;;;;;;;14.05;79.77;100681.25;5014401;28;20041;-76
2021/12/31 01:53:27;;;;;;;2.97;1.08;;;;;;;14.06;79.76;100683.00;5014367;28;20048;-76
2021/12/31 01:55:57;;;;;;;1.33;0.30;;;;;;;14.07;80.04;100685.66;5014192;28;20393;-76
2021/12/31 01:58:24;;;;;;;1.70;0.50;;;;;;;14.08;79.68;100699.78;5014583;28;20032;-76
2021/12/31 02:00:51;;;;;;;1.17;0.40;;;;;;;14.06;80.05;100688.31;5014143;28;20037;-76
2021/12/31 02:03:19;;;;;;;1.55;0.43;;;;;;;14.10;79.74;100684.72;5013014;28;20030;-76
2021/12/31 02:05:44;;;;;;;1.05;0.40;;;;;;;14.07;79.92;100692.69;5012981;28;20041;-76
2021/12/31 02:08:10;;;;;;;2.53;0.50;;;;;;;14.11;79.67;100702.38;5014034;28;20057;-76
2021/12/31 02:10:35;;;;;;;1.13;0.40;;;;;;;14.06;79.80;100699.78;5014009;28;20046;-75
2021/12/31 02:13:01;;;;;;;1.73;0.50;;;;;;;14.07;79.97;100693.59;5014097;28;20397;-76
2021/12/31 02:15:26;;;;;;;0.95;0.38;;;;;;;14.06;79.80;100696.28;5013835;28;20030;-76
2021/12/31 02:17:53;;;;;;;2.28;0.45;;;;;;;14.09;79.64;100694.44;5013963;28;20053;-77
2021/12/31 02:20:20;;;;;;;1.63;0.47;;;;;;;14.11;79.58;100697.06;5008677;28;20121;-76
2021/12/31 02:23:05;;;;;;;2.65;0.50;;;;;;;14.09;79.94;100699.72;5013903;28;20050;-76
2021/12/31 02:25:31;;;;;;;0.75;0.30;;;;;;;14.06;79.94;100707.75;5011915;28;20040;-76
2021/12/31 02:27:56;;;;;;;2.50;0.50;;;;;;;14.06;79.81;100691.84;5013729;28;20477;-76
2021/12/31 02:30:22;;;;;;;1.75;0.63;;;;;;;14.08;79.37;100705.97;5013241;28;20030;-76
2021/12/31 02:32:47;;;;;;;2.35;0.50;;;;;;;14.16;79.50;100698.72;5013787;28;20403;-76
2021/12/31 02:35:13;;;;;;;1.35;0.32;;;;;;;14.11;79.52;100695.28;5013381;28;20136;-76
2021/12/31 02:37:39;;;;;;;1.05;0.40;;;;;;;14.13;79.52;100697.91;5013587;28;20044;-76
2021/12/31 02:40:08;;;;;;;0.55;0.30;;;;;;;14.11;79.78;100703.25;5013466;28;20041;-76
2021/12/31 02:42:33;;;;;;;1.05;0.47;;;;;;;14.13;79.65;100695.25;5009691;28;20124;-76
2021/12/31 02:44:59;;;;;;;0.77;0.30;;;;;;;14.09;79.71;100704.16;5013248;28;20136;-76
2021/12/31 02:47:24;;;;;;;2.45;0.88;;;;;;;14.12;79.62;100699.72;5013302;28;20029;-76
2021/12/31 02:49:50;;;;;;;2.88;0.50;;;;;;;14.10;79.67;100706.81;5013241;28;20045;-76
2021/12/31 02:52:17;;;;;;;0.57;0.20;;;;;;;14.09;79.59;100706.81;5013413;28;20121;-76
2021/12/31 02:54:45;;;;;;;3.35;0.77;;;;;;;14.12;79.66;100698.81;5013069;28;20382;-76
2021/12/31 02:57:13;;;;;;;2.53;0.40;;;;;;;14.19;79.15;100700.44;5013275;28;20124;-76
2021/12/31 02:59:39;;;;;;;2.17;0.47;;;;;;;14.15;79.12;100709.41;5013096;28;20049;-77
2021/12/31 03:02:06;;;;;;;0.65;0.30;;;;;;;14.15;79.26;100694.34;5013120;28;20124;-76
2021/12/31 03:04:34;;;;;;;2.45;0.50;;;;;;;14.18;79.05;100698.72;5012248;28;20037;-77
2021/12/31 03:07:03;;;;;;;0.38;0.30;;;;;;;14.17;79.23;100697.84;5013098;28;20117;-77
2021/12/31 03:09:28;;;;;;;0.75;0.30;;;;;;;14.12;79.18;100690.84;5013003;28;20091;-76
2021/12/31 03:11:56;;;;;;;1.42;0.82;;;;;;;14.10;79.42;100701.50;5013043;28;20412;-76
2021/12/31 03:14:22;;;;;;;2.75;0.40;;;;;;;14.18;79.17;100698.72;5027993;28;20511;-76
2021/12/31 03:16:48;;;;;;;1.02;0.38;;;;;;;14.11;79.11;100697.06;5012429;28;20091;-76
2021/12/31 03:19:13;;;;;;;2.28;0.40;;;;;;;13.98;79.64;100681.34;5012186;28;20382;-77
2021/12/31 03:21:39;;;;;;;3.97;0.50;;;;;;;13.82;79.94;100683.41;5013526;28;20037;-76
2021/12/31 03:24:04;;;;;;;1.13;0.30;;;;;;;13.66;80.78;100684.56;5018712;28;20044;-76
2021/12/31 03:26:30;;;;;;;4.05;0.50;;;;;;;13.58;81.11;100679.38;5014202;28;20507;-77
2021/12/31 03:28:55;;;;;;;1.08;0.35;;;;;;;13.52;81.22;100675.97;5013261;28;20081;-76
2021/12/31 03:31:21;;;;;;;1.73;0.60;;;;;;;13.42;81.67;100677.88;5012538;28;20145;-76
2021/12/31 03:33:46;;;;;;;1.05;0.40;;;;;;;13.38;82.18;100668.22;5012632;28;20120;-76
2021/12/31 03:36:11;;;;;;;3.60;0.68;;;;;;;13.24;82.18;100665.75;5012271;28;20030;-77
2021/12/31 03:38:37;;;;;;;1.75;0.63;;;;;;;13.15;82.64;100677.38;5012486;28;20518;-76
2021/12/31 03:41:02;;;;;;;1.45;0.43;;;;;;;13.07;82.94;100673.06;5012493;28;20113;-76
2021/12/31 03:43:28;;;;;;;1.50;0.50;;;;;;;12.97;83.73;100688.22;5012233;28;20504;-76
2021/12/31 03:45:53;;;;;;;1.77;0.40;;;;;;;12.90;83.51;100686.53;5012097;28;20041;-76
2021/12/31 03:48:19;;;;;;;2.08;0.32;;;;;;;12.81;84.04;100682.25;5012127;28;20122;-77
2021/12/31 03:50:45;;;;;;;1.98;0.50;;;;;;;12.75;84.51;100676.16;5012255;28;20037;-76
2021/12/31 03:53:11;;;;;;;2.20;0.90;;;;;;;12.68;84.82;100692.13;5008403;28;20037;-77
2021/12/31 03:55:36;;;;;;;2.42;0.60;;;;;;;12.61;84.95;100686.91;5011865;28;20459;-77
2021/12/31 03:58:02;;;;;;;2.22;0.43;;;;;;;12.52;85.21;100687.00;5012105;28;20038;-76
2021/12/31 04:00:29;;;;;;;2.28;0.50;;;;;;;12.47;85.70;100681.75;5011997;28;20045;-76
2021/12/31 04:02:57;;;;;;;1.40;0.47;;;;;;;12.32;86.82;100676.66;5012020;28;20033;-76
2021/12/31 04:05:25;;;;;;;3.67;0.60;;;;;;;12.27;86.48;100682.88;5011934;28;20447;-76
2021/12/31 04:07:52;;;;;;;3.28;0.82;;;;;;;12.27;86.68;100677.56;5011662;28;20042;-76
2021/12/31 04:10:17;;;;;;;2.55;0.30;;;;;;;12.19;87.22;100684.72;5011798;28;20538;-76
2021/12/31 04:12:43;;;;;;;1.33;0.50;;;;;;;12.20;87.10;100683.81;5011954;28;20037;-76
2021/12/31 04:15:09;;;;;;;2.28;0.70;;;;;;;12.13;86.79;100665.38;5010293;28;20044;-76
2021/12/31 04:17:34;;;;;;;1.52;0.70;;;;;;;12.16;87.43;100673.31;5011669;28;20033;-76
2021/12/31 04:19:59;;;;;;;3.15;0.70;;;;;;;12.11;87.46;100673.34;5010505;28;20038;-77
2021/12/31 04:22:27;;;;;;;1.48;0.55;;;;;;;12.10;88.10;100665.41;5011768;28;20050;-76
2021/12/31 04:24:53;;;;;;;2.60;0.40;;;;;;;12.16;87.77;100674.19;5010334;28;20049;-76
2021/12/31 04:27:20;;;;;;;2.75;0.50;;;;;;;12.16;87.55;100666.25;5011725;28;20037;-76
2021/12/31 04:29:52;;;;;;;1.92;0.57;;;;;;;12.13;87.47;100670.66;5007668;28;20061;-77
2021/12/31 04:32:23;;;;;;;1.05;0.47;;;;;;;12.17;87.67;100675.91;5007150;28;20049;-76
2021/12/31 04:34:48;;;;;;;2.25;0.40;;;;;;;12.28;87.64;100675.81;5010168;28;20068;-76
2021/12/31 04:37:14;;;;;;;1.63;0.60;;;;;;;12.39;86.67;100673.03;5011607;28;20038;-76
2021/12/31 04:39:40;;;;;;;2.33;0.52;;;;;;;12.53;86.36;100684.34;5011567;28;20099;-77
2021/12/31 04:42:05;;;;;;;1.75;0.75;;;;;;;12.65;85.58;100681.56;5011454;28;20045;-76
2021/12/31 04:44:31;;;;;;;1.20;0.40;;;;;;;12.74;85.17;100685.88;5011347;28;20034;-77
2021/12/31 04:46:56;;;;;;;2.00;0.80;;;;;;;12.83;84.35;100684.88;5013261;28;20579;-77
2021/12/31 04:49:22;;;;;;;2.47;0.60;;;;;;;12.91;84.65;100689.16;5011052;28;20042;-77
2021/12/31 04:51:47;;;;;;;3.30;0.60;;;;;;;12.98;84.02;100697.91;5011446;28;20120;-76
2021/12/31 04:54:15;;;;;;;2.30;0.65;;;;;;;13.04;83.75;100700.47;5008253;28;20408;-76
2021/12/31 04:56:44;;;;;;;1.38;0.38;;;;;;;13.09;83.40;100693.34;5011023;28;20665;-76
2021/12/31 04:59:11;;;;;;;1.50;0.47;;;;;;;13.08;83.61;100699.53;5011488;28;20033;-76
2021/12/31 05:01:36;;;;;;;1.25;0.40;;;;;;;13.11;83.55;100704.78;5011283;28;20026;-76
2021/12/31 05:04:02;;;;;;;1.55;0.50;;;;;;;13.15;83.00;100709.16;5011254;28;20041;-76
2021/12/31 05:06:27;;;;;;;1.50;0.52;;;;;;;13.26;82.84;100697.53;5013397;28;20042;-76
2021/12/31 05:08:53;;;;;;;2.05;0.60;;;;;;;13.17;82.91;100695.88;5010937;28;20088;-75
2021/12/31 05:11:18;;;;;;;2.28;0.60;;;;;;;13.22;82.93;100696.69;5011180;28;20077;-76
2021/12/31 05:13:43;;;;;;;1.50;0.50;;;;;;;13.27;82.72;100712.56;5011287;28;20448;-77
2021/12/31 05:16:09;;;;;;;1.55;0.57;;;;;;;13.30;82.28;100681.56;5010963;28;20049;-75
2021/12/31 05:18:34;;;;;;;2.70;0.57;;;;;;;13.38;81.60;100681.47;5011204;28;20046;-76
2021/12/31 05:20:59;;;;;;;1.65;0.60;;;;;;;13.39;81.44;100691.19;5011075;28;20439;-77
2021/12/31 05:23:25;;;;;;;1.83;0.50;;;;;;;13.43;81.50;100689.34;5010918;28;20038;-77
2021/12/31 05:25:50;;;;;;;2.72;0.60;;;;;;;13.46;81.42;100676.91;5010905;28;20042;-77
2021/12/31 05:28:16;;;;;;;2.33;0.65;;;;;;;13.46;80.95;100682.22;5011062;28;20121;-77
2021/12/31 05:30:41;;;;;;;2.10;0.47;;;;;;;13.50;80.45;100686.59;5010576;28;20088;-76
2021/12/31 05:33:06;;;;;;;1.63;0.60;;;;;;;13.52;80.33;100689.22;5011066;28;20025;-76
2021/12/31 05:35:32;;;;;;;3.58;0.73;;;;;;;13.54;79.40;100682.09;5010825;28;20485;-76
2021/12/31 05:37:57;;;;;;;0.93;0.43;;;;;;;13.56;79.49;100691.78;5011054;28;20104;-76
2021/12/31 05:40:23;;;;;;;0.60;0.20;;;;;;;13.58;78.97;100686.47;5010931;28;20038;-76
2021/12/31 05:42:49;;;;;;;1.85;0.50;;;;;;;13.63;78.27;100689.06;5014775;28;20613;-77
2021/12/31 05:45:15;;;;;;;2.53;0.60;;;;;;;13.62;78.89;100692.59;5014338;28;20037;-77
2021/12/31 05:47:40;;;;;;;1.30;0.50;;;;;;;13.57;79.44;100682.94;5014425;28;20034;-76
2021/12/31 05:50:10;;;;;;;0.98;0.50;;;;;;;13.56;80.11;100702.38;5021624;28;20049;-77
2021/12/31 05:52:36;;;;;;;2.20;0.63;;;;;;;13.50;80.97;100702.50;5013333;28;20068;-76
2021/12/31 05:55:05;;;;;;;4.00;0.80;;;;;;;13.48;81.36;100695.47;5014187;28;20124;-76
2021/12/31 05:57:30;;;;;;;1.02;0.40;;;;;;;13.47;81.69;100704.34;5014380;28;20492;-77
2021/12/31 05:59:55;;;;;;;2.38;0.55;;;;;;;13.49;81.74;100684.84;5014250;28;20074;-77
2021/12/31 06:02:20;;;;;;;1.27;0.47;;;;;;;13.51;81.86;100693.63;5014351;28;20081;-77
2021/12/31 06:04:46;;;;;;;2.00;0.60;;;;;;;13.43;82.02;100698.19;5013984;28;20069;-76
2021/12/31 06:07:11;;;;;;;3.85;0.70;;;;;;;13.34;82.10;100706.28;5014031;28;20041;-76
2021/12/31 06:09:36;;;;;;;3.67;0.50;;;;;;;13.37;81.97;100708.88;5013908;28;20041;-76
2021/12/31 06:12:02;;;;;;;2.22;0.55;;;;;;;13.36;82.06;100701.81;5014165;28;20022;-76
2021/12/31 06:14:29;;;;;;;2.40;0.60;;;;;;;13.40;81.73;100694.72;5020829;28;20476;-77
2021/12/31 06:16:55;;;;;;;2.22;0.68;;;;;;;13.42;81.19;100690.28;5012639;28;20141;-76
2021/12/31 06:19:21;;;;;;;5.28;1.27;;;;;;;13.45;81.31;100717.59;5013935;28;20125;-76
2021/12/31 06:21:46;;;;;;;2.13;0.70;;;;;;;13.42;80.93;100709.69;5013987;28;20484;-76
2021/12/31 06:24:11;;;;;;;1.40;0.45;;;;;;;13.39;80.75;100701.78;5013895;28;20046;-76
2021/12/31 06:26:37;;;;;;;2.45;0.50;;;;;;;13.41;80.49;100707.94;5013507;28;20037;-76
2021/12/31 06:29:04;;;;;;;1.40;0.40;;;;;;;13.43;80.23;100706.13;5013679;28;20026;-77
2021/12/31 06:31:29;;;;;;;2.28;0.70;;;;;;;13.44;79.90;100705.25;5013685;28;20096;-77
2021/12/31 06:33:55;;;;;;;3.20;0.60;;;;;;;13.43;79.83;100702.63;5013683;28;20041;-76
2021/12/31 06:36:21;;;;;;;1.40;0.60;;;;;;;13.41;79.65;100689.38;5013460;28;20042;-75
2021/12/31 06:38:47;;;;;;;1.92;0.50;;;;;;;13.43;79.30;100692.88;5013561;28;20033;-76
2021/12/31 06:41:14;;;;;;;1.17;0.38;;;;;;;13.41;79.23;100707.94;5012325;28;20492;-75
2021/12/31 06:43:40;;;;;;;1.13;0.30;;;;;;;13.44;78.84;100723.81;5013448;28;20046;-77
2021/12/31 06:46:05;;;;;;;3.03;1.25;;;;;;;13.39;79.20;100717.69;5013148;28;20044;-76
2021/12/31 06:48:30;;;;;;;2.08;0.47;;;;;;;13.41;79.44;100723.84;5013314;28;20131;-76
2021/12/31 06:50:56;;;;;;;1.63;0.40;;;;;;;13.38;78.84;100735.34;5013412;28;20033;-76
2021/12/31 06:53:21;;;;;;;1.92;0.60;;;;;;;13.43;78.80;100727.34;5028542;28;20475;-77
2021/12/31 06:55:46;;;;;;;2.70;0.70;;;;;;;13.38;79.04;100731.84;5020335;28;20084;-77
2021/12/31 06:58:12;;;;;;;1.40;0.40;;;;;;;13.35;79.01;100740.72;5013197;28;20022;-77
2021/12/31 07:00:37;;;;;;;2.45;0.80;;;;;;;13.40;78.83;100753.91;5013124;28;20033;-77
2021/12/31 07:03:12;;;;;;;1.35;0.60;;;;;;;13.42;78.34;100752.13;5013190;28;20447;-76
2021/12/31 07:05:42;;;;;;;3.42;0.63;;;;;;;13.47;78.44;100766.19;5012906;28;20117;-77
2021/12/31 07:08:07;;;;;;;2.15;0.75;;;;;;;13.38;78.13;100764.50;5012996;28;20030;-76
2021/12/31 07:10:32;;;;;;;1.83;0.68;;;;;;;13.46;78.12;100751.16;5013042;28;20572;-76
2021/12/31 07:12:59;;;;;;;6.95;1.20;;;;;;;13.46;77.89;100753.81;5012955;28;20492;-76
2021/12/31 07:15:25;;;;;;;3.08;0.90;;;;;;;13.45;77.63;100753.84;5012608;28;20076;-76
2021/12/31 07:17:51;;;;;;;2.92;0.57;;;;;;;13.46;77.52;100753.81;5012840;28;20061;-76
2021/12/31 07:20:16;;;;;;;1.95;0.60;;;;;;;13.49;76.80;100748.50;5012461;28;20029;-76
2021/12/31 07:22:41;;;;;;;1.67;0.50;;;;;;;13.61;76.79;100749.19;5013102;28;20548;-79
2021/12/31 07:25:07;;;;;;;1.23;0.40;;;;;;;13.59;76.38;100770.41;5012855;28;20045;-79
2021/12/31 07:27:33;;;;;;;1.48;0.50;;;;;;;13.64;76.46;100743.84;5012842;28;20072;-79
2021/12/31 07:29:58;;;;;;;0.82;0.50;;;;;;;13.58;76.15;100753.63;5012734;28;20030;-79
2021/12/31 07:32:24;;;;;;;0.65;0.40;;;;;;;13.65;75.87;100750.88;5012994;28;20042;-79
2021/12/31 07:34:49;;;;;;;1.80;0.50;;;;;;;13.65;75.87;100745.56;5019723;28;20037;-79
2021/12/31 07:37:15;;;;;;;0.95;0.38;;;;;;;13.66;75.78;100752.66;5012965;28;20464;-79
2021/12/31 07:39:47;;;;;;;2.53;0.55;;;;;;;13.65;75.37;100740.28;5012714;28;20038;-79
2021/12/31 07:42:13;;;;;;;1.35;0.50;;;;;;;13.74;75.35;100746.31;5012633;28;20030;-79
2021/12/31 07:44:39;;;;;;;3.38;0.60;;;;;;;13.72;75.17;100760.50;5019641;28;20428;-78
2021/12/31 07:47:04;;;;;;;2.15;0.60;;;;;;;13.72;75.31;100760.50;5011320;28;20132;-78
2021/12/31 07:49:30;;;;;;;1.48;0.60;;;;;;;13.77;74.54;100758.66;5012506;28;20104;-79
2021/12/31 07:51:55;;;;;;;1.42;0.40;;;;;;;13.78;74.53;100749.78;5012609;28;20049;-79
2021/12/31 07:54:22;;;;;;;2.35;0.70;;;;;;;13.82;74.26;100759.47;5012487;28;20054;-79
2021/12/31 07:56:48;;;;;;;3.00;0.70;;;;;;;13.83;73.83;100750.59;5012429;28;20033;-79
2021/12/31 07:59:13;;;;;;;3.72;0.90;;;;;;;13.84;73.82;100781.53;5011338;28;20038;-79
2021/12/31 08:01:38;;;;;;;2.00;0.60;;;;;;;13.83;73.59;100755.91;5012280;28;20087;-79
2021/12/31 08:04:04;;;;;;;2.47;0.65;;;;;;;13.83;73.63;100745.28;5012001;28;20177;-79
2021/12/31 08:06:29;;;;;;;1.60;0.50;;;;;;;13.89;73.49;100739.91;5019376;28;20124;-79
2021/12/31 08:08:55;;;;;;;1.25;0.52;;;;;;;13.93;73.18;100746.03;5012373;28;20049;-79
2021/12/31 08:11:20;;;;;;;1.20;0.50;;;;;;;13.90;73.21;100738.97;5012167;28;20030;-79
2021/12/31 08:13:46;;;;;;;2.50;1.08;;;;;;;13.90;73.17;100746.06;5011951;28;20041;-79
2021/12/31 08:16:12;;;;;;;3.10;0.90;;;;;;;13.91;73.10;100739.84;5011186;28;20531;-79
2021/12/31 08:18:37;;;;;;;2.22;0.60;;;;;;;13.95;73.15;100750.41;5012281;28;20057;-79
2021/12/31 08:21:02;;;;;;;3.47;0.80;;;;;;;13.95;73.06;100742.44;5011932;28;20060;-79
2021/12/31 08:23:28;;;;;;;2.95;0.60;;;;;;;13.88;73.16;100740.78;5012257;28;20037;-79
2021/12/31 08:25:53;;;;;;;2.40;0.52;;;;;;;13.97;73.04;100747.75;5012328;28;20114;-79
2021/12/31 08:28:19;;;;;;;3.47;0.60;;;;;;;14.00;72.82;100742.38;5012160;28;20037;-80
2021/12/31 08:30:44;;;;;;;2.05;0.43;;;;;;;13.91;73.14;100739.84;5012099;28;20037;-78
2021/12/31 08:33:09;;;;;;;1.88;0.57;;;;;;;14.00;72.77;100745.91;5012225;28;20088;-80
2021/12/31 08:35:35;;;;;;;2.22;1.05;;;;;;;14.02;72.64;100752.06;5012008;28;20077;-79
2021/12/31 08:38:00;;;;;;;1.77;0.73;;;;;;;14.02;72.79;100737.91;5012110;28;20395;-79
2021/12/31 08:40:26;;;;;;;3.05;0.73;;;;;;;13.97;73.21;100732.69;5012017;28;20455;-79
2021/12/31 08:42:51;;;;;;;2.55;0.85;;;;;;;13.95;73.05;100742.44;5011816;28;20076;-79
2021/12/31 08:45:17;;;;;;;2.40;0.50;;;;;;;14.02;72.97;100738.78;5011834;28;20038;-79
2021/12/31 08:47:43;;;;;;;2.83;1.10;;;;;;;14.07;72.64;100733.41;5011824;28;20497;-79
2021/12/31 08:50:09;;;;;;;2.45;0.55;;;;;;;14.07;72.41;100741.38;5011948;28;20120;-79
2021/12/31 08:52:35;;;;;;;3.45;0.60;;;;;;;14.11;72.53;100743.06;5008168;28;20049;-79
2021/12/31 08:55:00;;;;;;;1.50;0.50;;;;;;;14.12;72.42;100746.56;5011919;28;20046;-79
2021/12/31 08:57:25;;;;;;;3.13;0.88;;;;;;;14.16;72.36;100730.56;5012064;28;20045;-79
2021/12/31 08:59:51;;;;;;;2.22;0.60;;;;;;;14.17;72.23;100748.28;5012005;28;20053;-78
2021/12/31 09:02:16;;;;;;;2.83;0.77;;;;;;;14.22;72.25;100743.72;5011135;28;20048;-79
2021/12/31 09:04:41;;;;;;;6.60;1.00;;;;;;;14.21;71.81;100757.91;5010636;28;20033;-79
2021/12/31 09:07:06;;;;;;;2.42;0.80;;;;;;;14.19;72.20;100753.53;5011767;28;20045;-79
2021/12/31 09:09:32;;;;;;;1.90;0.85;;;;;;;14.20;72.43;100766.78;5015368;28;20030;-79
2021/12/31 09:11:57;;;;;;;3.70;1.02;;;;;;;14.14;72.50;100755.41;5011854;28;20124;-79
2021/12/31 09:14:23;;;;;;;1.85;0.80;;;;;;;14.13;72.93;100753.66;5018914;28;20065;-80
2021/12/31 09:16:51;;;;;;;1.77;0.70;;;;;;;14.14;72.63;100753.63;5013058;28;20670;-79
2021/12/31 09:19:16;;;;;;;0.85;0.40;;;;;;;14.06;72.89;100747.56;5012042;28;20044;-79
2021/12/31 09:21:42;;;;;;;1.48;0.63;;;;;;;14.12;72.61;100746.56;5015905;28;20169;-79
2021/12/31 09:24:07;;;;;;;1.15;0.50;;;;;;;14.09;72.93;100747.50;5015812;28;20034;-79
2021/12/31 09:26:33;;;;;;;2.50;0.52;;;;;;;14.05;73.02;100747.59;5014753;28;20041;-79
2021/12/31 09:28:58;;;;;;;2.22;0.60;;;;;;;14.03;72.95;100745.84;5015607;28;20033;-79
2021/12/31 09:31:24;;;;;;;1.30;0.45;;;;;;;14.02;73.07;100745.88;5015624;28;20071;-79
2021/12/31 09:33:49;;;;;;;2.22;0.55;;;;;;;14.15;73.27;100728.84;5015811;28;20084;-79
2021/12/31 09:36:15;;;;;;;1.58;0.70;;;;;;;14.22;72.73;100718.97;5015667;28;20499;-79
2021/12/31 09:38:41;;;;;;;1.30;0.50;;;;;;;14.29;72.46;100728.59;5014315;28;20069;-79
2021/12/31 09:41:06;;;;;;;2.55;0.70;;;;;;;14.18;73.08;100730.56;5022614;28;20164;-79
2021/12/31 09:43:33;;;;;;;2.78;0.80;;;;;;;14.33;72.62;100730.28;5015374;28;20480;-79
2021/12/31 09:45:58;;;;;;;1.33;0.55;;;;;;;14.47;72.86;100733.56;5015211;28;20044;-79
2021/12/31 09:48:24;;;;;;;1.10;0.60;;;;;;;14.58;72.39;100728.06;5015582;28;20148;-79
2021/12/31 09:50:54;;;;;;;2.20;0.88;;;;;;;14.61;71.93;100720.03;5015508;28;20056;-80
2021/12/31 09:53:20;;;;;;;1.95;0.68;;;;;;;14.71;71.45;100709.25;5015604;28;20033;-79
2021/12/31 09:55:49;;;;;;;1.13;0.50;;;;;;;14.73;71.34;100718.06;5013729;28;20124;-79
2021/12/31 09:58:16;;;;;;;1.52;0.70;;;;;;;14.78;71.12;100710.88;5015213;28;20036;-79
2021/12/31 10:00:44;;;;;;;1.65;0.60;;;;;;;14.76;70.74;100697.59;5015465;28;20088;-79
2021/12/31 10:03:12;;;;;;;2.00;0.90;;;;;;;14.79;70.41;100697.53;5015411;28;20419;-79
2021/12/31 10:05:41;;;;;;;2.13;0.73;;;;;;;14.90;70.73;100706.16;5015071;28;20041;-79
2021/12/31 10:08:23;;;;;;;3.50;0.60;;;;;;;14.93;70.58;100712.31;5015007;28;20030;-80
2021/12/31 10:11:02;;;;;;;1.55;0.85;;;;;;;14.95;70.29;100697.22;5010729;28;20136;-79
2021/12/31 10:13:28;;;;;;;1.02;0.50;;;;;;;15.09;69.93;100703.09;5013955;28;20045;-79
2021/12/31 10:15:55;;;;;;;2.47;0.70;;;;;;;15.12;69.51;100703.03;5014882;28;20121;-79
2021/12/31 10:18:37;;;;;;;2.80;1.02;;;;;;;15.20;69.18;100693.13;5022185;28;20041;-79
2021/12/31 10:21:04;;;;;;;2.47;1.00;;;;;;;15.13;69.42;100691.50;5018556;28;20409;-79
2021/12/31 10:23:30;;;;;;;2.10;0.80;;;;;;;15.16;69.46;100695.88;5011250;28;20103;-79
2021/12/31 10:26:10;;;;;;;0.95;0.50;;;;;;;15.17;69.35;100693.19;5014858;28;20484;-79
2021/12/31 10:28:36;;;;;;;2.25;0.75;;;;;;;15.22;68.77;100685.09;5012150;28;20065;-79
2021/12/31 10:31:12;;;;;;;3.15;0.50;;;;;;;15.20;68.04;100687.78;5014853;28;20076;-79
2021/12/31 10:33:46;;;;;;;1.45;0.65;;;;;;;15.14;68.71;100695.88;5014930;28;20038;-79
2021/12/31 10:36:37;;;;;;;1.88;0.50;;;;;;;15.16;68.61;100691.41;5018447;28;20500;-79
2021/12/31 10:39:24;;;;;;;1.10;0.63;;;;;;;15.14;68.68;100690.56;5017823;28;20112;-79
2021/12/31 10:41:52;;;;;;;2.20;0.80;;;;;;;15.14;68.64;100677.28;5009743;28;20053;-79
2021/12/31 10:44:17;;;;;;;2.20;0.50;;;;;;;15.23;68.08;100689.50;5014254;28;20060;-80
2021/12/31 10:46:42;;;;;;;2.22;0.47;;;;;;;15.07;68.58;100683.66;5014779;28;20034;-80
2021/12/31 10:49:11;;;;;;;2.45;0.70;;;;;;;15.15;68.74;100684.38;5014746;28;20081;-80
2021/12/31 10:51:42;;;;;;;3.17;1.25;;;;;;;15.17;68.98;100693.19;5014846;28;20045;-80
2021/12/31 10:54:33;;;;;;;1.52;0.70;;;;;;;15.05;68.03;100680.16;5010807;28;20057;-79
2021/12/31 10:56:59;;;;;;;2.95;0.50;;;;;;;15.06;68.03;100684.56;5013820;28;20038;-80
2021/12/31 10:59:25;;;;;;;1.48;0.70;;;;;;;15.08;68.36;100685.41;5014509;28;20033;-79
2021/12/31 11:01:51;;;;;;;3.00;0.80;;;;;;;15.15;67.37;100694.13;5015075;28;20037;-80
2021/12/31 11:04:22;;;;;;;2.88;0.85;;;;;;;15.21;67.64;100684.22;5014954;28;20480;-80
2021/12/31 11:06:48;;;;;;;4.03;1.17;;;;;;;15.26;67.72;100687.66;5014573;28;20458;-80
2021/12/31 11:09:15;;;;;;;2.20;0.77;;;;;;;15.46;66.12;100689.84;5014599;28;20034;-79
2021/12/31 11:11:43;;;;;;;2.60;0.82;;;;;;;15.68;65.80;100690.19;5014643;28;20046;-80
2021/12/31 11:14:10;;;;;;;1.35;0.70;;;;;;;15.76;65.08;100688.25;5013565;28;20535;-79
2021/12/31 11:16:39;;;;;;;2.53;0.80;;;;;;;15.80;64.56;100675.75;5014004;28;20408;-79
2021/12/31 11:19:05;;;;;;;2.67;0.80;;;;;;;15.82;64.10;100681.88;5013315;28;20038;-80
2021/12/31 11:21:32;;;;;;;8.07;0.70;;;;;;;15.84;64.07;100669.44;5012862;28;20435;-80
2021/12/31 11:24:31;;;;;;;1.90;0.73;;;;;;;15.98;64.08;100677.94;5014499;28;20040;-79
2021/12/31 11:26:58;;;;;;;3.22;0.82;;;;;;;15.77;64.41;100658.09;5009674;28;20117;-80